Nacc Quebec — CHAC — position and weather

sailwx.info

Track history (hours):
 
Tides and Currents Weather Stations Pressure Air Temp Water Temp Dewpoint Dewpoint Depression Visibility Wind Speed Wind Dir Waves Ship Positions

Nacc Quebec

Last reported at 2017-Dec-10 22:33 UTC. Time now 2017-Dec-12 00:42 UTC.
Position N 45°14' W 074°13'.

Length 139 m; draft 6.7 m.

Type: Cargo ship. MMSI: 316034372.

Date/timePositionNaut miles runAvg speedWind from/ knotsBaromVisibWave heightAir tempDewpointWater temp
2017-Dec-10 22:33N 45°14' W 074°13'111.2
2017-Dec-10 22:29N 45°14' W 074°12'11 8.1
2017-Dec-10 21:05N 45°17' W 073°57'1 8.9
2017-Dec-10 21:01N 45°17' W 073°56'1 2.3
2017-Dec-10 20:31N 45°18' W 073°56'1 1.4
2017-Dec-10 20:01N 45°19' W 073°55'0 0.3
2017-Dec-10 19:31N 45°19' W 073°55'0 0.6
2017-Dec-10 19:00N 45°19' W 073°55'3 5.7
2017-Dec-10 18:30N 45°21' W 073°52'510.4
2017-Dec-10 18:00N 45°24' W 073°46'4 7.8
2017-Dec-10 17:30N 45°25' W 073°40'3 6.1
2017-Dec-10 17:00N 45°24' W 073°36'2 3.3
2017-Dec-10 16:30N 45°24' W 073°34'1 1.1
2017-Dec-10 16:00N 45°24' W 073°33'3 5.1
2017-Dec-10 15:30N 45°26' W 073°30'3 6.7
2017-Dec-10 15:00N 45°29' W 073°31'1 1.0
2017-Dec-10 14:21N 45°30' W 073°31'1 2.4
2017-Dec-10 13:48N 45°31' W 073°32'  
2017-Dec-03 10:07N 47°20' W 052°40'213.1
2017-Dec-03 09:56N 47°23' W 052°38'612.9
2017-Dec-03 09:28N 47°28' W 052°35'712.8
2017-Dec-03 08:56N 47°35' W 052°35'14 4.7
2017-Dec-03 05:59N 47°35' W 052°56'5 0.3
2017-Dec-02 10:39N 47°32' W 053°01'1 6.9
2017-Dec-02 10:30N 47°32' W 053°02'3 5.3
2017-Dec-02 09:59N 47°34' W 053°05'5 9.4
2017-Dec-02 09:28N 47°38' W 053°02'18 8.8
2017-Dec-02 07:26N 47°46' W 052°38'511.9
2017-Dec-02 06:58N 47°41' W 052°35'611.3
2017-Dec-02 06:27N 47°36' W 052°33'612.0
2017-Dec-02 05:56N 47°29' W 052°33'611.5
2017-Dec-02 05:26N 47°24' W 052°33'511.2
2017-Dec-02 04:59N 47°19' W 052°35'  
Track history (hours):
 
Tides and Currents Weather Stations Pressure Air Temp Water Temp Dewpoint Dewpoint Depression Visibility Wind Speed Wind Dir Waves Ship Positions

Nacc Quebec

Last reported at 2017-Dec-10 22:33 UTC. Time now 2017-Dec-12 00:42 UTC.
Position N 45°14' W 074°13'.

Length 139 m; draft 6.7 m.

Type: Cargo ship. MMSI: 316034372.

Date/timePositionNaut miles runAvg speedWind from/ knotsBaromVisibWave heightAir tempDewpointWater temp
2017-Dec-10 22:33N 45°14' W 074°13'111.2
2017-Dec-10 22:29N 45°14' W 074°12'11 8.1
2017-Dec-10 21:05N 45°17' W 073°57'1 8.9
2017-Dec-10 21:01N 45°17' W 073°56'1 2.3
2017-Dec-10 20:31N 45°18' W 073°56'1 1.4
2017-Dec-10 20:01N 45°19' W 073°55'0 0.3
2017-Dec-10 19:31N 45°19' W 073°55'0 0.6
2017-Dec-10 19:00N 45°19' W 073°55'3 5.7
2017-Dec-10 18:30N 45°21' W 073°52'510.4
2017-Dec-10 18:00N 45°24' W 073°46'4 7.8
2017-Dec-10 17:30N 45°25' W 073°40'3 6.1
2017-Dec-10 17:00N 45°24' W 073°36'2 3.3
2017-Dec-10 16:30N 45°24' W 073°34'1 1.1
2017-Dec-10 16:00N 45°24' W 073°33'3 5.1
2017-Dec-10 15:30N 45°26' W 073°30'3 6.7
2017-Dec-10 15:00N 45°29' W 073°31'1 1.0
2017-Dec-10 14:21N 45°30' W 073°31'1 2.4
2017-Dec-10 13:48N 45°31' W 073°32'  
2017-Dec-03 10:07N 47°20' W 052°40'213.1
2017-Dec-03 09:56N 47°23' W 052°38'612.9
2017-Dec-03 09:28N 47°28' W 052°35'712.8
2017-Dec-03 08:56N 47°35' W 052°35'14 4.7
2017-Dec-03 05:59N 47°35' W 052°56'5 0.3
2017-Dec-02 10:39N 47°32' W 053°01'1 6.9
2017-Dec-02 10:30N 47°32' W 053°02'3 5.3
2017-Dec-02 09:59N 47°34' W 053°05'5 9.4
2017-Dec-02 09:28N 47°38' W 053°02'18 8.8
2017-Dec-02 07:26N 47°46' W 052°38'511.9
2017-Dec-02 06:58N 47°41' W 052°35'611.3
2017-Dec-02 06:27N 47°36' W 052°33'612.0
2017-Dec-02 05:56N 47°29' W 052°33'611.5
2017-Dec-02 05:26N 47°24' W 052°33'511.2
2017-Dec-02 04:59N 47°19' W 052°35'  

Dump ship's entire track history